Alanreed, TX

4:27 PM CDT on April 19, 2015 (GMT -0500)
Perry Lefors | | Change Station
CLOSE
Current Station
Airport
Location: Pampa,
Elevation: 3245 ft
Nearby Weather Stations
Active Advisory: Wind Advisory

Elev 3245 ft 35.61 °N, 101.00 °W | Updated 12 minutes ago

Overcast
Overcast
52 °F
Feels Like 52 °F
N
18
Wind Variable Wind from North
Gusts 31 mph

Today
High -- | Low -- °F
--% Chance of Precip.
Yesterday
High -- | Low -- °F
Precip. -- in
7:05 AM 8:19 PM
New Moon, 2% visible
Pressure 29.98 in
Visibility 10.0 miles
Clouds Scattered Clouds 3300 ft
Overcast 4100 ft
Dew Point 38 °F
Humidity 59%
Rainfall 0.00 in
Snow Depth Not available.
UV 2 out of 12
Pollen 10.10 out of 12
Air Quality Not available.
Flu Activity Local Activity
METAR KPPA 192115Z AUTO 36016G27KT 10SM SCT033 OVC041 11/04 A2998 RMK AO2 T01130036

More Conditions Fewer Conditions

Pressure 29.98 in
Visibility 10.0 miles
Clouds Scattered Clouds 3300 ft
Overcast 4100 ft
Dew Point 38 °F
Humidity 59%
Rainfall 0.00 in
Snow Depth Not available.
UV 2 out of 12
Pollen 10.10 out of 12
Air Quality Not available.
Flu Activity Local Activity
METAR KPPA 192115Z AUTO 36016G27KT 10SM SCT033 OVC041 11/04 A2998 RMK AO2 T01130036

More Conditions Fewer Conditions

10-Day Weather Forecast

Almanac

Astronomy

Apr. 19, 2015 Rise Set
Actual Time
Civil Twilight
Nautical Twilight
Astronomical Twilight
Moon
Length of Visible Light
Length of Day
Tomorrow will be .
, % of the Moon is Illuminated

Today's Extremes

State Highs State Lows

Community

WunderPhotos

Upload Photos

1,814,988 photos uploaded!

WunderBlogs® & News

Nearby

Air Quality

  Air Quality AQ Index Pollutant
Not available.

Snow Depth

Station Depth Elevation

Earthquake Activity

City Distance Mag. Time & Date
Minimum magnitude displayed is 2.5.

Coastal Water Temperatures

Place Temperature

Stations

Nearby Weather Stations

Station Location Temp. Windchill Dew Point Humidity Wind Precip. Elev Updated Type
                   
Wind Advisory
Statement as of 2:53 PM CDT on April 19, 2015

... Wind Advisory remains in effect until 6 PM CDT this evening...

* event... north winds of 30 to 40 mph with gusts to near 50 to
55 mph are expected across the eastern Oklahoma Panhandle and
over much of the Texas Panhandle through early this evening.

* Timing... strong northerly winds will remain strong until
around early this evening.

* Impacts... the strong north winds will make driving difficult...
   especially on west to east oriented roads. Loose or
lightweight outdoor objects such as lawn furniture or trash
cans may be blown around by the strong wind.

Precautionary/preparedness actions...

A Wind Advisory means that winds of 35 mph are expected. Winds
this strong can make driving difficult... especially for high
profile vehicles. Use extra caution.